sensor_id;sensor_type;location;lat;lon;timestamp;temperature;humidity
7646;DHT22;3864;48.180;14.178;2022-11-20T00:01:22;0.10;99.90
7646;DHT22;3864;48.180;14.178;2022-11-20T00:03:51;0.00;99.90
7646;DHT22;3864;48.180;14.178;2022-11-20T00:06:19;0.00;99.90
7646;DHT22;3864;48.180;14.178;2022-11-20T00:08:47;0.00;99.90
7646;DHT22;3864;48.180;14.178;2022-11-20T00:11:16;0.00;99.90
7646;DHT22;3864;48.180;14.178;2022-11-20T00:13:43;0.00;99.90
7646;DHT22;3864;48.180;14.178;2022-11-20T00:16:14;0.00;99.90
7646;DHT22;3864;48.180;14.178;2022-11-20T00:18:42;0.00;99.90
7646;DHT22;3864;48.180;14.178;2022-11-20T00:21:11;0.00;99.90
7646;DHT22;3864;48.180;14.178;2022-11-20T00:23:38;0.00;99.90
7646;DHT22;3864;48.180;14.178;2022-11-20T00:26:07;0.00;99.90
7646;DHT22;3864;48.180;14.178;2022-11-20T00:28:35;0.00;99.90
7646;DHT22;3864;48.180;14.178;2022-11-20T00:31:03;0.00;99.90
7646;DHT22;3864;48.180;14.178;2022-11-20T00:33:32;0.00;99.90
7646;DHT22;3864;48.180;14.178;2022-11-20T00:36:00;0.10;99.90
7646;DHT22;3864;48.180;14.178;2022-11-20T00:38:28;0.00;99.90
7646;DHT22;3864;48.180;14.178;2022-11-20T00:40:56;0.00;99.90
7646;DHT22;3864;48.180;14.178;2022-11-20T00:43:24;0.00;99.90
7646;DHT22;3864;48.180;14.178;2022-11-20T00:45:55;0.10;99.90
7646;DHT22;3864;48.180;14.178;2022-11-20T00:48:23;0.10;99.90
7646;DHT22;3864;48.180;14.178;2022-11-20T00:50:51;0.10;99.90
7646;DHT22;3864;48.180;14.178;2022-11-20T00:53:18;0.00;99.90
7646;DHT22;3864;48.180;14.178;2022-11-20T00:55:53;0.00;99.90
7646;DHT22;3864;48.180;14.178;2022-11-20T00:58:20;0.00;99.90
7646;DHT22;3864;48.180;14.178;2022-11-20T01:00:47;0.10;99.90
7646;DHT22;3864;48.180;14.178;2022-11-20T01:03:15;0.10;99.90
7646;DHT22;3864;48.180;14.178;2022-11-20T01:05:43;0.10;99.90
7646;DHT22;3864;48.180;14.178;2022-11-20T01:08:11;0.10;99.90
7646;DHT22;3864;48.180;14.178;2022-11-20T01:10:38;0.20;99.90
7646;DHT22;3864;48.180;14.178;2022-11-20T01:13:06;0.20;99.90
7646;DHT22;3864;48.180;14.178;2022-11-20T01:15:50;0.20;99.90
7646;DHT22;3864;48.180;14.178;2022-11-20T01:18:17;0.20;99.90
7646;DHT22;3864;48.180;14.178;2022-11-20T01:20:44;0.20;99.90
7646;DHT22;3864;48.180;14.178;2022-11-20T01:23:13;0.20;99.90
7646;DHT22;3864;48.180;14.178;2022-11-20T01:25:40;0.20;99.90
7646;DHT22;3864;48.180;14.178;2022-11-20T01:28:07;0.20;99.90
7646;DHT22;3864;48.180;14.178;2022-11-20T01:30:34;0.20;99.90
7646;DHT22;3864;48.180;14.178;2022-11-20T01:33:01;0.20;99.90
7646;DHT22;3864;48.180;14.178;2022-11-20T01:35:28;0.20;99.90
7646;DHT22;3864;48.180;14.178;2022-11-20T01:37:55;0.30;99.90
7646;DHT22;3864;48.180;14.178;2022-11-20T01:40:24;0.20;99.90
7646;DHT22;3864;48.180;14.178;2022-11-20T01:42:55;0.30;99.90
7646;DHT22;3864;48.180;14.178;2022-11-20T01:46:12;0.30;99.90
7646;DHT22;3864;48.180;14.178;2022-11-20T01:48:44;0.30;99.90
7646;DHT22;3864;48.180;14.178;2022-11-20T01:51:19;0.30;99.90
7646;DHT22;3864;48.180;14.178;2022-11-20T01:53:48;0.30;99.90
7646;DHT22;3864;48.180;14.178;2022-11-20T01:56:17;0.30;99.90
7646;DHT22;3864;48.180;14.178;2022-11-20T01:58:48;0.30;99.90
7646;DHT22;3864;48.180;14.178;2022-11-20T02:01:17;0.30;99.90
7646;DHT22;3864;48.180;14.178;2022-11-20T02:03:45;0.30;99.90
7646;DHT22;3864;48.180;14.178;2022-11-20T02:08:54;0.20;99.90
7646;DHT22;3864;48.180;14.178;2022-11-20T02:11:23;0.20;99.90
7646;DHT22;3864;48.180;14.178;2022-11-20T02:13:50;0.20;99.90
7646;DHT22;3864;48.180;14.178;2022-11-20T02:16:20;0.20;99.90
7646;DHT22;3864;48.180;14.178;2022-11-20T02:18:49;0.20;99.90
7646;DHT22;3864;48.180;14.178;2022-11-20T02:21:27;0.20;99.90
7646;DHT22;3864;48.180;14.178;2022-11-20T02:24:05;0.20;99.90
7646;DHT22;3864;48.180;14.178;2022-11-20T02:26:37;0.20;99.90
7646;DHT22;3864;48.180;14.178;2022-11-20T02:29:05;0.20;99.90
7646;DHT22;3864;48.180;14.178;2022-11-20T02:31:38;0.30;99.90
7646;DHT22;3864;48.180;14.178;2022-11-20T02:34:07;0.20;99.90
7646;DHT22;3864;48.180;14.178;2022-11-20T02:36:35;0.20;99.90
7646;DHT22;3864;48.180;14.178;2022-11-20T02:39:04;0.20;99.90
7646;DHT22;3864;48.180;14.178;2022-11-20T02:41:34;0.20;99.90
7646;DHT22;3864;48.180;14.178;2022-11-20T02:44:02;0.20;99.90
7646;DHT22;3864;48.180;14.178;2022-11-20T02:46:30;0.20;99.90
7646;DHT22;3864;48.180;14.178;2022-11-20T02:48:57;0.10;99.90
7646;DHT22;3864;48.180;14.178;2022-11-20T02:51:24;0.10;99.90
7646;DHT22;3864;48.180;14.178;2022-11-20T02:53:51;0.10;99.90
7646;DHT22;3864;48.180;14.178;2022-11-20T02:56:20;0.10;99.90
7646;DHT22;3864;48.180;14.178;2022-11-20T02:58:48;0.10;99.90
7646;DHT22;3864;48.180;14.178;2022-11-20T03:01:15;0.10;99.90
7646;DHT22;3864;48.180;14.178;2022-11-20T03:03:42;0.10;99.90
7646;DHT22;3864;48.180;14.178;2022-11-20T03:06:09;0.10;99.90
7646;DHT22;3864;48.180;14.178;2022-11-20T03:08:36;0.10;99.90
7646;DHT22;3864;48.180;14.178;2022-11-20T03:11:05;0.10;99.90
7646;DHT22;3864;48.180;14.178;2022-11-20T03:13:34;0.10;99.90
7646;DHT22;3864;48.180;14.178;2022-11-20T03:16:10;0.10;99.90
7646;DHT22;3864;48.180;14.178;2022-11-20T03:18:38;0.10;99.90
7646;DHT22;3864;48.180;14.178;2022-11-20T03:21:06;0.20;99.90
7646;DHT22;3864;48.180;14.178;2022-11-20T03:23:34;0.20;99.90
7646;DHT22;3864;48.180;14.178;2022-11-20T03:26:12;0.30;99.90
7646;DHT22;3864;48.180;14.178;2022-11-20T03:28:41;0.30;99.90
7646;DHT22;3864;48.180;14.178;2022-11-20T03:31:10;0.30;99.90
7646;DHT22;3864;48.180;14.178;2022-11-20T03:33:38;0.30;99.90
7646;DHT22;3864;48.180;14.178;2022-11-20T03:36:09;0.30;99.90
7646;DHT22;3864;48.180;14.178;2022-11-20T03:38:37;0.30;99.90
7646;DHT22;3864;48.180;14.178;2022-11-20T03:41:06;0.30;99.90
7646;DHT22;3864;48.180;14.178;2022-11-20T03:43:34;0.30;99.90
7646;DHT22;3864;48.180;14.178;2022-11-20T03:46:03;0.30;99.90
7646;DHT22;3864;48.180;14.178;2022-11-20T03:48:30;0.30;99.90
7646;DHT22;3864;48.180;14.178;2022-11-20T03:51:07;0.30;99.90
7646;DHT22;3864;48.180;14.178;2022-11-20T03:53:34;0.30;99.90
7646;DHT22;3864;48.180;14.178;2022-11-20T03:56:01;0.20;99.90
7646;DHT22;3864;48.180;14.178;2022-11-20T03:58:29;0.30;99.90
7646;DHT22;3864;48.180;14.178;2022-11-20T04:00:56;0.30;99.90
7646;DHT22;3864;48.180;14.178;2022-11-20T04:03:25;0.20;99.90
7646;DHT22;3864;48.180;14.178;2022-11-20T04:05:52;0.20;99.90
7646;DHT22;3864;48.180;14.178;2022-11-20T04:08:19;0.20;99.90
7646;DHT22;3864;48.180;14.178;2022-11-20T04:10:46;0.20;99.90
7646;DHT22;3864;48.180;14.178;2022-11-20T04:13:14;0.20;99.90
7646;DHT22;3864;48.180;14.178;2022-11-20T04:15:41;0.30;99.90
7646;DHT22;3864;48.180;14.178;2022-11-20T04:18:08;0.30;99.90
7646;DHT22;3864;48.180;14.178;2022-11-20T04:20:37;0.20;99.90
7646;DHT22;3864;48.180;14.178;2022-11-20T04:23:04;0.20;99.90
7646;DHT22;3864;48.180;14.178;2022-11-20T04:25:31;0.20;99.90
7646;DHT22;3864;48.180;14.178;2022-11-20T04:27:58;0.30;99.90
7646;DHT22;3864;48.180;14.178;2022-11-20T04:30:25;0.30;99.90
7646;DHT22;3864;48.180;14.178;2022-11-20T04:32:52;0.30;99.90
7646;DHT22;3864;48.180;14.178;2022-11-20T04:35:19;0.30;99.90
7646;DHT22;3864;48.180;14.178;2022-11-20T04:37:50;0.40;99.90
7646;DHT22;3864;48.180;14.178;2022-11-20T04:40:18;0.40;99.90
7646;DHT22;3864;48.180;14.178;2022-11-20T04:42:45;0.40;99.90
7646;DHT22;3864;48.180;14.178;2022-11-20T04:45:12;0.40;99.90
7646;DHT22;3864;48.180;14.178;2022-11-20T04:47:40;0.40;99.90
7646;DHT22;3864;48.180;14.178;2022-11-20T04:50:07;0.40;99.90
7646;DHT22;3864;48.180;14.178;2022-11-20T04:52:34;0.40;99.90
7646;DHT22;3864;48.180;14.178;2022-11-20T04:55:04;0.40;99.90
7646;DHT22;3864;48.180;14.178;2022-11-20T04:57:31;0.30;99.90
7646;DHT22;3864;48.180;14.178;2022-11-20T04:59:58;0.30;99.90
7646;DHT22;3864;48.180;14.178;2022-11-20T05:02:25;0.30;99.90
7646;DHT22;3864;48.180;14.178;2022-11-20T05:04:52;0.30;99.90
7646;DHT22;3864;48.180;14.178;2022-11-20T05:07:20;0.30;99.90
7646;DHT22;3864;48.180;14.178;2022-11-20T05:09:47;0.30;99.90
7646;DHT22;3864;48.180;14.178;2022-11-20T05:12:16;0.30;99.90
7646;DHT22;3864;48.180;14.178;2022-11-20T05:14:43;0.30;99.90
7646;DHT22;3864;48.180;14.178;2022-11-20T05:17:11;0.30;99.90
7646;DHT22;3864;48.180;14.178;2022-11-20T05:19:38;0.30;99.90
7646;DHT22;3864;48.180;14.178;2022-11-20T05:22:05;0.30;99.90
7646;DHT22;3864;48.180;14.178;2022-11-20T05:24:32;0.30;99.90
7646;DHT22;3864;48.180;14.178;2022-11-20T05:26:59;0.30;99.90
7646;DHT22;3864;48.180;14.178;2022-11-20T05:29:28;0.30;99.90
7646;DHT22;3864;48.180;14.178;2022-11-20T05:31:55;0.30;99.90
7646;DHT22;3864;48.180;14.178;2022-11-20T05:34:22;0.30;99.90
7646;DHT22;3864;48.180;14.178;2022-11-20T05:36:50;0.30;99.90
7646;DHT22;3864;48.180;14.178;2022-11-20T05:39:17;0.30;99.90
7646;DHT22;3864;48.180;14.178;2022-11-20T05:41:44;0.40;99.90
7646;DHT22;3864;48.180;14.178;2022-11-20T05:44:11;0.30;99.90
7646;DHT22;3864;48.180;14.178;2022-11-20T05:46:40;0.40;99.90
7646;DHT22;3864;48.180;14.178;2022-11-20T05:49:08;0.40;99.90
7646;DHT22;3864;48.180;14.178;2022-11-20T05:51:35;0.40;99.90
7646;DHT22;3864;48.180;14.178;2022-11-20T05:54:02;0.50;99.90
7646;DHT22;3864;48.180;14.178;2022-11-20T05:56:29;0.50;99.90
7646;DHT22;3864;48.180;14.178;2022-11-20T05:58:56;0.50;99.90
7646;DHT22;3864;48.180;14.178;2022-11-20T06:01:25;0.50;99.90
7646;DHT22;3864;48.180;14.178;2022-11-20T06:03:54;0.50;99.90
7646;DHT22;3864;48.180;14.178;2022-11-20T06:06:21;0.50;99.90
7646;DHT22;3864;48.180;14.178;2022-11-20T06:08:49;0.50;99.90
7646;DHT22;3864;48.180;14.178;2022-11-20T06:11:17;0.50;99.90
7646;DHT22;3864;48.180;14.178;2022-11-20T06:13:44;0.50;99.90
7646;DHT22;3864;48.180;14.178;2022-11-20T06:16:14;0.50;99.90
7646;DHT22;3864;48.180;14.178;2022-11-20T06:18:41;0.50;99.90
7646;DHT22;3864;48.180;14.178;2022-11-20T06:21:11;0.50;99.90
7646;DHT22;3864;48.180;14.178;2022-11-20T06:23:39;0.50;99.90
7646;DHT22;3864;48.180;14.178;2022-11-20T06:26:07;0.60;99.90
7646;DHT22;3864;48.180;14.178;2022-11-20T06:28:35;0.50;99.90
7646;DHT22;3864;48.180;14.178;2022-11-20T06:31:03;0.50;99.90
7646;DHT22;3864;48.180;14.178;2022-11-20T06:33:30;0.50;99.90
7646;DHT22;3864;48.180;14.178;2022-11-20T06:35:58;0.60;99.90
7646;DHT22;3864;48.180;14.178;2022-11-20T06:38:27;0.60;99.90
7646;DHT22;3864;48.180;14.178;2022-11-20T06:40:55;0.60;99.90
7646;DHT22;3864;48.180;14.178;2022-11-20T06:43:23;0.60;99.90
7646;DHT22;3864;48.180;14.178;2022-11-20T06:45:52;0.70;99.90
7646;DHT22;3864;48.180;14.178;2022-11-20T06:48:19;0.70;99.90
7646;DHT22;3864;48.180;14.178;2022-11-20T06:50:47;0.70;99.90
7646;DHT22;3864;48.180;14.178;2022-11-20T06:53:14;0.70;99.90
7646;DHT22;3864;48.180;14.178;2022-11-20T06:55:44;0.70;99.90
7646;DHT22;3864;48.180;14.178;2022-11-20T06:58:11;0.80;99.90
7646;DHT22;3864;48.180;14.178;2022-11-20T07:00:39;0.80;99.90
7646;DHT22;3864;48.180;14.178;2022-11-20T07:03:07;0.80;99.90
7646;DHT22;3864;48.180;14.178;2022-11-20T07:05:35;0.90;99.90
7646;DHT22;3864;48.180;14.178;2022-11-20T07:08:04;0.90;99.90
7646;DHT22;3864;48.180;14.178;2022-11-20T07:10:32;0.90;99.90
7646;DHT22;3864;48.180;14.178;2022-11-20T07:13:01;1.00;99.90
7646;DHT22;3864;48.180;14.178;2022-11-20T07:15:28;1.00;99.90
7646;DHT22;3864;48.180;14.178;2022-11-20T07:17:57;1.00;99.90
7646;DHT22;3864;48.180;14.178;2022-11-20T07:20:24;1.00;99.90
7646;DHT22;3864;48.180;14.178;2022-11-20T07:22:53;1.20;99.90
7646;DHT22;3864;48.180;14.178;2022-11-20T07:25:21;1.20;99.90
7646;DHT22;3864;48.180;14.178;2022-11-20T07:27:48;1.20;99.90
7646;DHT22;3864;48.180;14.178;2022-11-20T07:30:18;1.20;99.90
7646;DHT22;3864;48.180;14.178;2022-11-20T07:32:46;1.20;99.90
7646;DHT22;3864;48.180;14.178;2022-11-20T07:35:13;1.20;99.90
7646;DHT22;3864;48.180;14.178;2022-11-20T07:37:41;1.20;99.90
7646;DHT22;3864;48.180;14.178;2022-11-20T07:40:09;1.20;99.90
7646;DHT22;3864;48.180;14.178;2022-11-20T07:42:36;1.20;99.90
7646;DHT22;3864;48.180;14.178;2022-11-20T07:45:04;1.20;99.90
7646;DHT22;3864;48.180;14.178;2022-11-20T07:47:36;1.20;99.90
7646;DHT22;3864;48.180;14.178;2022-11-20T07:50:04;1.30;99.90
7646;DHT22;3864;48.180;14.178;2022-11-20T07:52:31;1.40;99.90
7646;DHT22;3864;48.180;14.178;2022-11-20T07:54:59;1.50;99.90
7646;DHT22;3864;48.180;14.178;2022-11-20T07:57:26;1.50;99.90
7646;DHT22;3864;48.180;14.178;2022-11-20T07:59:53;1.60;99.90
7646;DHT22;3864;48.180;14.178;2022-11-20T08:02:20;1.60;99.90
7646;DHT22;3864;48.180;14.178;2022-11-20T08:04:49;1.60;99.90
7646;DHT22;3864;48.180;14.178;2022-11-20T08:07:17;1.70;99.90
7646;DHT22;3864;48.180;14.178;2022-11-20T08:09:44;1.70;99.90
7646;DHT22;3864;48.180;14.178;2022-11-20T08:12:17;1.70;99.90
7646;DHT22;3864;48.180;14.178;2022-11-20T08:15:03;1.80;99.90
7646;DHT22;3864;48.180;14.178;2022-11-20T08:17:30;1.70;99.90
7646;DHT22;3864;48.180;14.178;2022-11-20T08:19:59;1.70;99.90
7646;DHT22;3864;48.180;14.178;2022-11-20T08:22:26;1.80;99.90
7646;DHT22;3864;48.180;14.178;2022-11-20T08:24:53;1.80;99.90
7646;DHT22;3864;48.180;14.178;2022-11-20T08:27:20;1.80;99.90
7646;DHT22;3864;48.180;14.178;2022-11-20T08:29:50;1.80;99.90
7646;DHT22;3864;48.180;14.178;2022-11-20T08:32:21;2.00;99.90
7646;DHT22;3864;48.180;14.178;2022-11-20T08:34:48;2.20;99.90
7646;DHT22;3864;48.180;14.178;2022-11-20T08:37:17;2.20;99.90
7646;DHT22;3864;48.180;14.178;2022-11-20T08:39:44;2.30;99.90
7646;DHT22;3864;48.180;14.178;2022-11-20T08:42:12;2.30;99.90
7646;DHT22;3864;48.180;14.178;2022-11-20T08:44:39;2.40;99.90
7646;DHT22;3864;48.180;14.178;2022-11-20T08:47:08;2.40;99.90
7646;DHT22;3864;48.180;14.178;2022-11-20T08:49:36;2.40;99.90
7646;DHT22;3864;48.180;14.178;2022-11-20T08:52:03;2.50;99.90
7646;DHT22;3864;48.180;14.178;2022-11-20T08:54:32;2.60;99.90
7646;DHT22;3864;48.180;14.178;2022-11-20T08:56:59;2.70;99.90
7646;DHT22;3864;48.180;14.178;2022-11-20T08:59:27;2.90;99.90
7646;DHT22;3864;48.180;14.178;2022-11-20T09:01:55;3.10;99.90
7646;DHT22;3864;48.180;14.178;2022-11-20T09:04:24;3.10;99.90
7646;DHT22;3864;48.180;14.178;2022-11-20T09:06:51;3.20;99.90
7646;DHT22;3864;48.180;14.178;2022-11-20T09:09:18;3.20;99.90
7646;DHT22;3864;48.180;14.178;2022-11-20T09:11:48;3.10;99.90
7646;DHT22;3864;48.180;14.178;2022-11-20T09:14:16;3.20;99.90
7646;DHT22;3864;48.180;14.178;2022-11-20T09:16:44;3.10;99.90
7646;DHT22;3864;48.180;14.178;2022-11-20T09:19:12;3.10;99.90
7646;DHT22;3864;48.180;14.178;2022-11-20T09:21:40;3.10;99.90
7646;DHT22;3864;48.180;14.178;2022-11-20T09:24:07;3.30;99.90
7646;DHT22;3864;48.180;14.178;2022-11-20T09:26:35;3.40;99.90
7646;DHT22;3864;48.180;14.178;2022-11-20T09:29:03;3.60;99.90
7646;DHT22;3864;48.180;14.178;2022-11-20T09:31:31;3.60;99.90
7646;DHT22;3864;48.180;14.178;2022-11-20T09:33:59;3.50;99.90
7646;DHT22;3864;48.180;14.178;2022-11-20T09:36:26;3.30;99.90
7646;DHT22;3864;48.180;14.178;2022-11-20T09:38:53;3.20;99.90
7646;DHT22;3864;48.180;14.178;2022-11-20T09:41:53;3.10;99.90
7646;DHT22;3864;48.180;14.178;2022-11-20T09:44:38;2.90;99.90
7646;DHT22;3864;48.180;14.178;2022-11-20T09:47:11;2.70;99.90
7646;DHT22;3864;48.180;14.178;2022-11-20T09:49:54;2.70;99.90
7646;DHT22;3864;48.180;14.178;2022-11-20T09:52:35;2.50;99.90
7646;DHT22;3864;48.180;14.178;2022-11-20T09:55:06;2.40;99.90
7646;DHT22;3864;48.180;14.178;2022-11-20T09:57:37;2.30;99.90
7646;DHT22;3864;48.180;14.178;2022-11-20T10:00:10;2.30;99.90
7646;DHT22;3864;48.180;14.178;2022-11-20T10:02:42;2.20;99.90
7646;DHT22;3864;48.180;14.178;2022-11-20T10:05:15;2.30;99.90
7646;DHT22;3864;48.180;14.178;2022-11-20T10:07:51;2.30;99.90
7646;DHT22;3864;48.180;14.178;2022-11-20T10:10:29;2.30;99.90
7646;DHT22;3864;48.180;14.178;2022-11-20T10:13:15;2.30;99.90
7646;DHT22;3864;48.180;14.178;2022-11-20T10:15:52;2.50;99.90
7646;DHT22;3864;48.180;14.178;2022-11-20T10:18:28;2.50;99.90
7646;DHT22;3864;48.180;14.178;2022-11-20T10:21:04;2.50;99.90
7646;DHT22;3864;48.180;14.178;2022-11-20T10:23:57;2.50;99.90
7646;DHT22;3864;48.180;14.178;2022-11-20T10:26:31;2.50;99.90
7646;DHT22;3864;48.180;14.178;2022-11-20T10:29:10;2.50;99.90
7646;DHT22;3864;48.180;14.178;2022-11-20T10:31:41;2.60;99.90
7646;DHT22;3864;48.180;14.178;2022-11-20T10:34:22;2.60;99.90
7646;DHT22;3864;48.180;14.178;2022-11-20T10:36:55;2.70;99.90
7646;DHT22;3864;48.180;14.178;2022-11-20T10:39:31;2.80;99.90
7646;DHT22;3864;48.180;14.178;2022-11-20T10:42:00;3.00;99.90
7646;DHT22;3864;48.180;14.178;2022-11-20T10:44:29;3.30;99.90
7646;DHT22;3864;48.180;14.178;2022-11-20T10:47:17;3.50;99.90
7646;DHT22;3864;48.180;14.178;2022-11-20T10:50:01;4.00;99.90
7646;DHT22;3864;48.180;14.178;2022-11-20T10:52:42;4.40;99.90
7646;DHT22;3864;48.180;14.178;2022-11-20T10:55:26;4.60;99.90
7646;DHT22;3864;48.180;14.178;2022-11-20T10:58:01;4.70;99.90
7646;DHT22;3864;48.180;14.178;2022-11-20T11:00:32;4.70;99.90
7646;DHT22;3864;48.180;14.178;2022-11-20T11:03:39;4.70;99.90
7646;DHT22;3864;48.180;14.178;2022-11-20T11:06:28;4.70;99.90
7646;DHT22;3864;48.180;14.178;2022-11-20T11:09:11;4.90;99.90
7646;DHT22;3864;48.180;14.178;2022-11-20T11:11:49;5.10;99.90
7646;DHT22;3864;48.180;14.178;2022-11-20T11:14:16;5.40;99.90
7646;DHT22;3864;48.180;14.178;2022-11-20T11:16:50;5.80;99.90
7646;DHT22;3864;48.180;14.178;2022-11-20T11:19:19;6.10;99.90
7646;DHT22;3864;48.180;14.178;2022-11-20T11:21:55;6.40;99.90
7646;DHT22;3864;48.180;14.178;2022-11-20T11:24:24;6.60;99.90
7646;DHT22;3864;48.180;14.178;2022-11-20T11:26:57;6.70;99.90
7646;DHT22;3864;48.180;14.178;2022-11-20T11:29:25;6.70;99.90
7646;DHT22;3864;48.180;14.178;2022-11-20T11:32:18;6.70;99.90
7646;DHT22;3864;48.180;14.178;2022-11-20T11:35:01;6.80;99.90
7646;DHT22;3864;48.180;14.178;2022-11-20T11:37:33;7.10;99.90
7646;DHT22;3864;48.180;14.178;2022-11-20T11:40:01;7.30;99.90
7646;DHT22;3864;48.180;14.178;2022-11-20T11:42:29;7.50;99.90
7646;DHT22;3864;48.180;14.178;2022-11-20T11:44:58;7.70;99.90
7646;DHT22;3864;48.180;14.178;2022-11-20T11:47:36;7.80;99.90
7646;DHT22;3864;48.180;14.178;2022-11-20T11:50:24;7.80;99.90
7646;DHT22;3864;48.180;14.178;2022-11-20T11:52:59;7.80;99.90
7646;DHT22;3864;48.180;14.178;2022-11-20T11:55:36;7.70;99.90
7646;DHT22;3864;48.180;14.178;2022-11-20T11:58:11;7.80;99.90
7646;DHT22;3864;48.180;14.178;2022-11-20T12:00:50;7.70;99.90
7646;DHT22;3864;48.180;14.178;2022-11-20T12:03:22;7.70;99.90
7646;DHT22;3864;48.180;14.178;2022-11-20T12:05:57;7.70;99.90
7646;DHT22;3864;48.180;14.178;2022-11-20T12:08:30;7.50;99.90
7646;DHT22;3864;48.180;14.178;2022-11-20T12:11:32;7.30;99.90
7646;DHT22;3864;48.180;14.178;2022-11-20T12:14:04;7.20;99.90
7646;DHT22;3864;48.180;14.178;2022-11-20T12:16:52;7.10;99.90
7646;DHT22;3864;48.180;14.178;2022-11-20T12:19:22;7.10;99.90
7646;DHT22;3864;48.180;14.178;2022-11-20T12:21:58;6.90;99.90
7646;DHT22;3864;48.180;14.178;2022-11-20T12:24:43;6.90;99.90
7646;DHT22;3864;48.180;14.178;2022-11-20T12:27:50;6.80;99.90
7646;DHT22;3864;48.180;14.178;2022-11-20T12:30:54;6.70;99.90
7646;DHT22;3864;48.180;14.178;2022-11-20T12:33:47;6.60;99.90
7646;DHT22;3864;48.180;14.178;2022-11-20T12:36:39;6.50;99.90
7646;DHT22;3864;48.180;14.178;2022-11-20T12:42:26;6.30;99.90
7646;DHT22;3864;48.180;14.178;2022-11-20T12:45:33;6.30;99.90
7646;DHT22;3864;48.180;14.178;2022-11-20T12:48:19;6.40;99.90
7646;DHT22;3864;48.180;14.178;2022-11-20T12:51:04;6.50;99.90
7646;DHT22;3864;48.180;14.178;2022-11-20T12:53:37;6.60;99.90
7646;DHT22;3864;48.180;14.178;2022-11-20T12:56:20;6.70;99.90
7646;DHT22;3864;48.180;14.178;2022-11-20T12:59:02;6.80;99.90
7646;DHT22;3864;48.180;14.178;2022-11-20T13:01:40;7.00;99.90
7646;DHT22;3864;48.180;14.178;2022-11-20T13:04:51;7.10;99.90
7646;DHT22;3864;48.180;14.178;2022-11-20T13:07:24;7.10;99.90
7646;DHT22;3864;48.180;14.178;2022-11-20T13:09:53;7.10;99.90
7646;DHT22;3864;48.180;14.178;2022-11-20T13:12:30;7.10;99.90
7646;DHT22;3864;48.180;14.178;2022-11-20T13:15:04;7.10;99.90
7646;DHT22;3864;48.180;14.178;2022-11-20T13:17:41;7.10;99.90
7646;DHT22;3864;48.180;14.178;2022-11-20T13:20:14;7.10;99.90
7646;DHT22;3864;48.180;14.178;2022-11-20T13:22:44;7.00;99.90
7646;DHT22;3864;48.180;14.178;2022-11-20T13:25:23;7.00;99.90
7646;DHT22;3864;48.180;14.178;2022-11-20T13:31:24;6.70;99.90
7646;DHT22;3864;48.180;14.178;2022-11-20T13:34:01;6.60;99.90
7646;DHT22;3864;48.180;14.178;2022-11-20T13:36:30;6.70;99.90
7646;DHT22;3864;48.180;14.178;2022-11-20T13:38:58;6.70;99.90
7646;DHT22;3864;48.180;14.178;2022-11-20T13:41:28;6.70;99.90
7646;DHT22;3864;48.180;14.178;2022-11-20T13:44:09;6.70;99.90
7646;DHT22;3864;48.180;14.178;2022-11-20T13:46:41;6.70;99.90
7646;DHT22;3864;48.180;14.178;2022-11-20T13:49:14;6.70;99.90
7646;DHT22;3864;48.180;14.178;2022-11-20T13:51:45;6.60;99.90
7646;DHT22;3864;48.180;14.178;2022-11-20T13:57:27;6.60;99.90
7646;DHT22;3864;48.180;14.178;2022-11-20T14:00:05;6.60;99.90
7646;DHT22;3864;48.180;14.178;2022-11-20T14:02:37;6.60;99.90
7646;DHT22;3864;48.180;14.178;2022-11-20T14:05:05;6.60;99.90
7646;DHT22;3864;48.180;14.178;2022-11-20T14:07:41;6.60;99.90
7646;DHT22;3864;48.180;14.178;2022-11-20T14:10:19;6.50;99.90
7646;DHT22;3864;48.180;14.178;2022-11-20T14:12:47;6.40;99.90
7646;DHT22;3864;48.180;14.178;2022-11-20T14:15:25;6.30;99.90
7646;DHT22;3864;48.180;14.178;2022-11-20T14:17:55;6.20;99.90
7646;DHT22;3864;48.180;14.178;2022-11-20T14:20:25;6.10;99.90
7646;DHT22;3864;48.180;14.178;2022-11-20T14:22:54;6.00;99.90
7646;DHT22;3864;48.180;14.178;2022-11-20T14:25:22;5.90;99.90
7646;DHT22;3864;48.180;14.178;2022-11-20T14:27:54;5.80;99.90
7646;DHT22;3864;48.180;14.178;2022-11-20T14:30:23;5.70;99.90
7646;DHT22;3864;48.180;14.178;2022-11-20T14:32:55;5.60;99.90
7646;DHT22;3864;48.180;14.178;2022-11-20T14:35:25;5.60;99.90
7646;DHT22;3864;48.180;14.178;2022-11-20T14:37:54;5.50;99.90
7646;DHT22;3864;48.180;14.178;2022-11-20T14:40:24;5.40;99.90
7646;DHT22;3864;48.180;14.178;2022-11-20T14:42:52;5.40;99.90
7646;DHT22;3864;48.180;14.178;2022-11-20T14:45:20;5.30;99.90
7646;DHT22;3864;48.180;14.178;2022-11-20T14:47:49;5.30;99.90
7646;DHT22;3864;48.180;14.178;2022-11-20T14:50:22;5.30;99.90
7646;DHT22;3864;48.180;14.178;2022-11-20T14:52:52;5.20;99.90
7646;DHT22;3864;48.180;14.178;2022-11-20T14:55:27;5.20;99.90
7646;DHT22;3864;48.180;14.178;2022-11-20T14:57:56;5.10;99.90
7646;DHT22;3864;48.180;14.178;2022-11-20T15:00:25;5.10;99.90
7646;DHT22;3864;48.180;14.178;2022-11-20T15:02:53;5.10;99.90
7646;DHT22;3864;48.180;14.178;2022-11-20T15:05:24;5.00;99.90
7646;DHT22;3864;48.180;14.178;2022-11-20T15:08:08;4.90;99.90
7646;DHT22;3864;48.180;14.178;2022-11-20T15:10:36;4.80;99.90
7646;DHT22;3864;48.180;14.178;2022-11-20T15:13:19;4.80;99.90
7646;DHT22;3864;48.180;14.178;2022-11-20T15:16:18;4.80;99.90
7646;DHT22;3864;48.180;14.178;2022-11-20T15:18:47;4.80;99.90
7646;DHT22;3864;48.180;14.178;2022-11-20T15:21:27;4.80;99.90
7646;DHT22;3864;48.180;14.178;2022-11-20T15:23:55;4.70;99.90
7646;DHT22;3864;48.180;14.178;2022-11-20T15:26:25;4.70;99.90
7646;DHT22;3864;48.180;14.178;2022-11-20T15:28:54;4.60;99.90
7646;DHT22;3864;48.180;14.178;2022-11-20T15:31:22;4.60;99.90
7646;DHT22;3864;48.180;14.178;2022-11-20T15:33:50;4.60;99.90
7646;DHT22;3864;48.180;14.178;2022-11-20T15:36:18;4.60;99.90
7646;DHT22;3864;48.180;14.178;2022-11-20T15:38:47;4.50;99.90
7646;DHT22;3864;48.180;14.178;2022-11-20T15:41:15;4.50;99.90
7646;DHT22;3864;48.180;14.178;2022-11-20T15:43:56;4.50;99.90
7646;DHT22;3864;48.180;14.178;2022-11-20T15:46:26;4.50;99.90
7646;DHT22;3864;48.180;14.178;2022-11-20T15:49:09;4.40;99.90
7646;DHT22;3864;48.180;14.178;2022-11-20T15:51:41;4.50;99.90
7646;DHT22;3864;48.180;14.178;2022-11-20T15:54:14;4.50;99.90
7646;DHT22;3864;48.180;14.178;2022-11-20T15:56:43;4.60;99.90
7646;DHT22;3864;48.180;14.178;2022-11-20T15:59:10;4.60;99.90
7646;DHT22;3864;48.180;14.178;2022-11-20T16:01:37;4.60;99.90
7646;DHT22;3864;48.180;14.178;2022-11-20T16:04:07;4.60;99.90
7646;DHT22;3864;48.180;14.178;2022-11-20T16:06:35;4.60;99.90
7646;DHT22;3864;48.180;14.178;2022-11-20T16:09:03;4.70;99.90
7646;DHT22;3864;48.180;14.178;2022-11-20T16:11:35;4.70;99.90
7646;DHT22;3864;48.180;14.178;2022-11-20T16:14:05;4.70;99.90
7646;DHT22;3864;48.180;14.178;2022-11-20T16:16:50;4.80;99.90
7646;DHT22;3864;48.180;14.178;2022-11-20T16:19:17;5.10;99.90
7646;DHT22;3864;48.180;14.178;2022-11-20T16:21:46;5.30;99.90
7646;DHT22;3864;48.180;14.178;2022-11-20T16:24:15;5.40;99.90
7646;DHT22;3864;48.180;14.178;2022-11-20T16:26:44;5.60;99.90
7646;DHT22;3864;48.180;14.178;2022-11-20T16:29:11;5.70;99.90
7646;DHT22;3864;48.180;14.178;2022-11-20T16:31:40;5.80;99.90
7646;DHT22;3864;48.180;14.178;2022-11-20T16:34:07;5.80;99.90
7646;DHT22;3864;48.180;14.178;2022-11-20T16:36:34;5.80;99.90
7646;DHT22;3864;48.180;14.178;2022-11-20T16:39:03;5.70;99.90
7646;DHT22;3864;48.180;14.178;2022-11-20T16:41:32;5.70;99.90